Time;durP1;ratioP1;P1;durP2;ratioP2;P2;SDS_P1;SDS_P2;PMS_P1;PMS_P2;Temp;Humidity;BMP_temperature;BMP_pressure;BME280_temperature;BME280_humidity;BME280_pressure;Samples;Min_cycle;Max_cycle;Signal;HPM_P1;HPM_P2
2022/06/11 00:01:56;;;;;;;11.30;3.40;;;;;;;;;;5088361;27;96792;-72
2022/06/11 00:04:25;;;;;;;8.15;3.63;;;;;;;;;;5095981;27;96270;-72
2022/06/11 00:06:53;;;;;;;6.38;3.30;;;;;;;;;;5092418;27;97375;-72
2022/06/11 00:09:22;;;;;;;14.75;3.50;;;;;;;;;;5093929;27;95301;-72
2022/06/11 00:11:51;;;;;;;6.57;3.35;;;;;;;;;;5092206;27;95594;-72
2022/06/11 00:14:19;;;;;;;5.82;3.13;;;;;;;;;;5075000;27;97335;-72
2022/06/11 00:16:45;;;;;;;12.13;3.40;;;;;;;;;;5092541;27;95242;-71
2022/06/11 00:19:12;;;;;;;5.95;3.53;;;;;;;;;;5088727;27;96811;-72
2022/06/11 00:21:41;;;;;;;8.20;3.72;;;;;;;;;;5084761;27;99283;-72
2022/06/11 00:24:09;;;;;;;5.57;3.65;;;;;;;;;;5078707;27;95487;-73
2022/06/11 00:26:38;;;;;;;8.27;4.32;;;;;;;;;;5092456;27;96169;-73
2022/06/11 00:29:05;;;;;;;6.25;3.40;;;;;;;;;;5093295;27;95424;-72
2022/06/11 00:31:32;;;;;;;6.18;3.65;;;;;;;;;;5091697;27;96970;-72
2022/06/11 00:33:59;;;;;;;6.45;3.78;;;;;;;;;;5088977;27;96586;-72
2022/06/11 00:36:25;;;;;;;6.13;3.53;;;;;;;;;;5093003;27;95674;-72
2022/06/11 00:38:52;;;;;;;6.20;3.25;;;;;;;;;;5092271;27;95945;-72
2022/06/11 00:41:20;;;;;;;6.90;3.53;;;;;;;;;;5091616;27;97396;-72
2022/06/11 00:43:46;;;;;;;8.02;3.47;;;;;;;;;;5092040;27;95492;-72
2022/06/11 00:46:32;;;;;;;5.80;3.25;;;;;;;;;;5086606;27;96742;-72
2022/06/11 00:48:58;;;;;;;4.78;2.97;;;;;;;;;;5075927;27;95286;-73
2022/06/11 00:51:27;;;;;;;5.72;3.42;;;;;;;;;;5083652;27;96742;-72
2022/06/11 00:53:59;;;;;;;7.90;3.55;;;;;;;;;;5095012;27;97755;-72
2022/06/11 00:56:37;;;;;;;6.90;3.40;;;;;;;;;;5095992;27;95337;-72
2022/06/11 00:59:09;;;;;;;6.90;3.25;;;;;;;;;;5095025;27;96757;-71
2022/06/11 01:01:35;;;;;;;6.63;3.38;;;;;;;;;;5088509;27;97299;-72
2022/06/11 01:04:04;;;;;;;5.13;2.95;;;;;;;;;;5083867;27;96117;-72
2022/06/11 01:07:02;;;;;;;8.55;3.08;;;;;;;;;;5096166;27;96847;-72
2022/06/11 01:09:39;;;;;;;5.93;2.90;;;;;;;;;;5053005;27;97459;-72
2022/06/11 01:12:13;;;;;;;5.10;2.92;;;;;;;;;;5095315;27;96799;-72
2022/06/11 01:14:44;;;;;;;4.40;2.72;;;;;;;;;;5091385;27;96391;-72
2022/06/11 01:17:10;;;;;;;4.88;2.92;;;;;;;;;;5095832;27;95109;-72
2022/06/11 01:19:51;;;;;;;4.68;2.67;;;;;;;;;;5096145;27;96808;-72
2022/06/11 01:22:36;;;;;;;5.33;2.67;;;;;;;;;;5092887;27;97548;-72
2022/06/11 01:25:12;;;;;;;8.55;3.25;;;;;;;;;;5094889;27;95428;-72
2022/06/11 01:27:58;;;;;;;3.65;2.40;;;;;;;;;;5074544;27;97465;-71
2022/06/11 01:30:36;;;;;;;3.83;2.25;;;;;;;;;;5095304;27;96993;-72
2022/06/11 01:33:09;;;;;;;4.03;2.20;;;;;;;;;;5097690;27;95455;-72
2022/06/11 01:35:36;;;;;;;5.63;2.78;;;;;;;;;;5094476;27;97327;-72
2022/06/11 01:38:17;;;;;;;3.38;2.25;;;;;;;;;;5093631;27;96139;-71
2022/06/11 01:40:58;;;;;;;6.55;2.88;;;;;;;;;;5094972;27;96437;-72
2022/06/11 01:43:34;;;;;;;3.55;2.05;;;;;;;;;;5092377;27;98857;-73
2022/06/11 01:46:05;;;;;;;5.75;2.58;;;;;;;;;;5074920;27;95345;-72
2022/06/11 01:48:32;;;;;;;4.97;2.35;;;;;;;;;;5075089;27;96740;-71
2022/06/11 01:51:03;;;;;;;6.32;2.30;;;;;;;;;;5087647;27;96099;-72
2022/06/11 01:53:39;;;;;;;3.47;2.07;;;;;;;;;;5080874;27;97127;-71
2022/06/11 01:56:15;;;;;;;4.32;2.13;;;;;;;;;;5076653;27;96812;-72
2022/06/11 01:59:01;;;;;;;4.30;2.25;;;;;;;;;;5076419;27;95366;-72
2022/06/11 02:01:30;;;;;;;4.43;2.50;;;;;;;;;;5091947;27;96646;-71
2022/06/11 02:04:20;;;;;;;3.70;2.17;;;;;;;;;;5095001;27;97515;-71
2022/06/11 02:06:50;;;;;;;4.63;2.28;;;;;;;;;;5076854;27;95311;-71
2022/06/11 02:09:27;;;;;;;3.72;2.22;;;;;;;;;;5095382;27;96919;-71
2022/06/11 02:12:14;;;;;;;4.72;2.40;;;;;;;;;;5094233;27;97490;-71
2022/06/11 02:14:52;;;;;;;4.63;2.28;;;;;;;;;;5076531;27;96128;-71
2022/06/11 02:17:21;;;;;;;5.22;2.20;;;;;;;;;;5093319;27;97229;-71
2022/06/11 02:19:59;;;;;;;5.03;2.35;;;;;;;;;;5092819;27;97318;-71
2022/06/11 02:22:35;;;;;;;3.03;2.20;;;;;;;;;;5090513;27;95610;-71
2022/06/11 02:25:29;;;;;;;4.25;2.05;;;;;;;;;;5083915;27;96685;-71
2022/06/11 02:28:00;;;;;;;3.33;2.10;;;;;;;;;;5079372;27;95624;-71
2022/06/11 02:30:28;;;;;;;6.45;2.30;;;;;;;;;;5088790;27;95955;-71
2022/06/11 02:32:55;;;;;;;4.30;2.40;;;;;;;;;;5095137;27;97387;-72
2022/06/11 02:35:27;;;;;;;3.70;2.40;;;;;;;;;;5083176;27;95304;-73
2022/06/11 02:37:54;;;;;;;4.25;2.20;;;;;;;;;;5091184;27;96070;-72
2022/06/11 02:40:23;;;;;;;3.38;2.15;;;;;;;;;;5097992;27;97066;-72
2022/06/11 02:42:52;;;;;;;4.20;2.22;;;;;;;;;;5094381;27;96787;-72
2022/06/11 02:45:19;;;;;;;3.88;2.30;;;;;;;;;;5093520;27;97424;-71
2022/06/11 02:47:47;;;;;;;3.58;2.13;;;;;;;;;;5094003;27;95336;-71
2022/06/11 02:50:26;;;;;;;4.45;2.33;;;;;;;;;;5094387;27;97022;-71
2022/06/11 02:52:54;;;;;;;3.05;1.80;;;;;;;;;;5090965;27;97296;-71
2022/06/11 02:55:20;;;;;;;2.65;1.80;;;;;;;;;;5093728;27;96274;-71
2022/06/11 02:57:47;;;;;;;4.35;1.90;;;;;;;;;;5092925;27;97050;-71
2022/06/11 03:00:16;;;;;;;3.00;1.52;;;;;;;;;;5075831;27;96096;-71
2022/06/11 03:02:45;;;;;;;5.03;1.88;;;;;;;;;;5075551;27;95307;-71
2022/06/11 03:05:13;;;;;;;4.25;1.80;;;;;;;;;;5073801;27;97195;-71
2022/06/11 03:07:39;;;;;;;2.05;1.35;;;;;;;;;;5066367;27;95227;-71
2022/06/11 03:10:06;;;;;;;4.82;1.77;;;;;;;;;;5073225;27;97833;-71
2022/06/11 03:12:33;;;;;;;3.78;2.13;;;;;;;;;;5073425;27;97315;-71
2022/06/11 03:15:02;;;;;;;4.30;2.00;;;;;;;;;;5051845;27;95448;-71
2022/06/11 03:17:29;;;;;;;4.85;1.67;;;;;;;;;;5052756;27;96857;-71
2022/06/11 03:19:55;;;;;;;5.60;1.50;;;;;;;;;;5072685;27;97396;-71
2022/06/11 03:22:22;;;;;;;2.38;1.48;;;;;;;;;;5070306;27;96544;-72
2022/06/11 03:24:49;;;;;;;3.33;1.55;;;;;;;;;;5075899;27;97142;-71
2022/06/11 03:27:17;;;;;;;2.15;1.48;;;;;;;;;;5071261;27;95180;-72
2022/06/11 03:29:44;;;;;;;4.00;1.58;;;;;;;;;;5070698;27;96426;-72
2022/06/11 03:32:10;;;;;;;1.92;1.40;;;;;;;;;;5063320;27;97389;-71
2022/06/11 03:34:37;;;;;;;2.13;1.55;;;;;;;;;;5057878;27;96075;-71
2022/06/11 03:37:06;;;;;;;2.70;1.20;;;;;;;;;;5072932;27;96854;-70
2022/06/11 03:39:34;;;;;;;2.33;1.40;;;;;;;;;;5071078;27;96883;-72
2022/06/11 03:42:00;;;;;;;5.32;1.70;;;;;;;;;;5070785;27;95366;-72
2022/06/11 03:44:27;;;;;;;1.98;1.20;;;;;;;;;;5071524;27;96845;-72
2022/06/11 03:46:55;;;;;;;4.43;1.65;;;;;;;;;;5076090;27;98266;-73
2022/06/11 03:49:27;;;;;;;4.90;1.50;;;;;;;;;;5071307;27;96011;-72
2022/06/11 03:51:54;;;;;;;2.78;1.65;;;;;;;;;;5052000;27;97745;-72
2022/06/11 03:54:21;;;;;;;2.30;1.20;;;;;;;;;;5052438;27;95410;-72
2022/06/11 03:56:49;;;;;;;3.58;1.67;;;;;;;;;;5052522;27;96874;-72
2022/06/11 03:59:20;;;;;;;3.45;1.70;;;;;;;;;;5073428;27;97333;-71
2022/06/11 04:01:47;;;;;;;5.20;1.38;;;;;;;;;;5090539;27;95330;-73
2022/06/11 04:04:15;;;;;;;3.47;1.30;;;;;;;;;;5092943;27;96730;-72
2022/06/11 04:06:44;;;;;;;9.98;1.70;;;;;;;;;;5093133;27;96773;-71
2022/06/11 04:09:14;;;;;;;2.63;1.50;;;;;;;;;;5093938;27;95213;-71
2022/06/11 04:11:44;;;;;;;2.40;1.20;;;;;;;;;;5093090;27;97147;-72
2022/06/11 20:17:44;;;;;;;7.32;1.00;;;;;;;;;;5028821;27;95469;-71
2022/06/11 20:20:11;;;;;;;2.42;1.10;;;;;;;;;;5028688;28;97296;-72
2022/06/11 20:22:37;;;;;;;1.83;1.20;;;;;;;;;;5014754;28;95276;-71
2022/06/11 20:25:04;;;;;;;4.20;1.42;;;;;;;;;;5007993;28;95759;-72
2022/06/11 20:27:30;;;;;;;2.53;1.35;;;;;;;;;;5007188;28;96019;-72
2022/06/11 20:29:57;;;;;;;3.33;1.40;;;;;;;;;;5009667;28;95365;-72
2022/06/11 20:32:24;;;;;;;2.05;1.13;;;;;;;;;;5005456;28;96754;-71
2022/06/11 20:34:51;;;;;;;2.75;1.75;;;;;;;;;;5017217;28;97112;-72
2022/06/11 20:37:18;;;;;;;2.47;1.25;;;;;;;;;;5023863;28;95220;-72
2022/06/11 20:39:45;;;;;;;2.95;1.13;;;;;;;;;;5019620;28;97111;-72
2022/06/11 20:42:11;;;;;;;6.93;3.03;;;;;;;;;;5001219;28;95491;-71
2022/06/11 20:44:38;;;;;;;6.80;3.63;;;;;;;;;;5007613;28;95774;-71
2022/06/11 20:47:04;;;;;;;3.15;2.17;;;;;;;;;;5018766;28;97194;-72
2022/06/11 20:49:43;;;;;;;8.38;4.70;;;;;;;;;;5012178;28;96651;-71
2022/06/11 20:52:10;;;;;;;4.75;2.80;;;;;;;;;;4999210;28;96813;-72
2022/06/11 20:54:38;;;;;;;5.63;2.25;;;;;;;;;;5006560;28;96413;-71
2022/06/11 20:57:04;;;;;;;4.72;2.28;;;;;;;;;;5009129;28;94963;-71
2022/06/11 20:59:31;;;;;;;6.82;1.70;;;;;;;;;;5009887;28;95907;-71
2022/06/11 21:01:57;;;;;;;5.22;2.03;;;;;;;;;;5007897;28;95776;-71
2022/06/11 21:04:26;;;;;;;6.18;2.70;;;;;;;;;;5006348;28;96770;-71
2022/06/11 21:09:39;;;;;;;3.42;1.52;;;;;;;;;;5007460;28;95249;-71
2022/06/11 21:12:05;;;;;;;4.25;2.15;;;;;;;;;;5007037;28;96709;-71
2022/06/11 21:14:33;;;;;;;6.30;2.45;;;;;;;;;;5005293;28;97488;-72
2022/06/11 21:17:00;;;;;;;5.60;2.85;;;;;;;;;;5008233;28;95161;-71
2022/06/11 21:19:27;;;;;;;8.80;2.88;;;;;;;;;;5005996;28;96843;-71
2022/06/11 21:21:53;;;;;;;6.85;2.08;;;;;;;;;;5010474;28;97445;-71
2022/06/11 21:24:20;;;;;;;3.83;1.65;;;;;;;;;;5005067;28;96790;-71
2022/06/11 21:26:46;;;;;;;4.38;1.40;;;;;;;;;;4999135;28;97141;-72
2022/06/11 21:29:13;;;;;;;2.38;1.25;;;;;;;;;;4993212;28;95573;-71
2022/06/11 21:31:39;;;;;;;3.60;2.03;;;;;;;;;;4993968;28;96707;-71
2022/06/11 21:34:08;;;;;;;4.25;1.70;;;;;;;;;;4993316;28;97379;-71
2022/06/11 21:36:34;;;;;;;4.35;2.08;;;;;;;;;;4994504;28;95246;-71
2022/06/11 21:39:00;;;;;;;3.20;1.83;;;;;;;;;;4994295;28;96677;-72
2022/06/11 21:41:45;;;;;;;4.18;2.30;;;;;;;;;;4994482;28;97252;-72
2022/06/11 21:44:23;;;;;;;6.60;3.75;;;;;;;;;;4996698;28;96198;-71
2022/06/11 21:46:51;;;;;;;11.05;5.32;;;;;;;;;;4990988;28;96221;-72
2022/06/11 21:49:18;;;;;;;10.57;5.00;;;;;;;;;;4988565;28;95316;-71
2022/06/11 21:51:45;;;;;;;6.28;3.20;;;;;;;;;;4992662;28;95721;-71
2022/06/11 21:54:13;;;;;;;5.15;2.60;;;;;;;;;;4994255;28;96262;-71
2022/06/11 21:56:40;;;;;;;5.55;2.95;;;;;;;;;;4993675;28;95264;-71
2022/06/11 21:59:07;;;;;;;5.78;2.63;;;;;;;;;;4992993;28;96941;-71
2022/06/11 22:01:37;;;;;;;4.72;1.83;;;;;;;;;;4993591;28;97283;-71
2022/06/11 22:04:04;;;;;;;5.00;2.30;;;;;;;;;;4974750;28;95021;-71
2022/06/11 22:06:30;;;;;;;8.60;4.15;;;;;;;;;;4993441;28;96613;-71
2022/06/11 22:08:57;;;;;;;9.23;3.40;;;;;;;;;;4994139;28;95372;-71
2022/06/11 22:11:28;;;;;;;5.38;2.65;;;;;;;;;;4992331;28;96646;-71
2022/06/11 22:13:58;;;;;;;8.47;2.60;;;;;;;;;;4994214;28;97306;-71
2022/06/11 22:16:25;;;;;;;4.55;1.98;;;;;;;;;;4991107;28;96339;-71
2022/06/11 22:18:53;;;;;;;5.03;1.60;;;;;;;;;;4994063;28;96806;-71
2022/06/11 22:21:24;;;;;;;5.13;2.70;;;;;;;;;;4992178;28;97238;-71
2022/06/11 22:23:52;;;;;;;4.83;1.77;;;;;;;;;;4994161;28;95548;-71
2022/06/11 22:26:20;;;;;;;3.58;1.48;;;;;;;;;;4993752;28;95793;-71
2022/06/11 22:28:46;;;;;;;2.28;1.30;;;;;;;;;;4995870;28;96525;-71
2022/06/11 22:31:18;;;;;;;1.88;1.00;;;;;;;;;;4990042;28;96738;-70
2022/06/11 22:33:45;;;;;;;3.17;1.60;;;;;;;;;;4994028;28;96387;-71
2022/06/11 22:36:12;;;;;;;6.68;3.00;;;;;;;;;;4993972;28;95306;-71
2022/06/11 22:38:38;;;;;;;7.70;3.38;;;;;;;;;;4991257;28;95815;-71
2022/06/11 22:41:05;;;;;;;7.28;2.63;;;;;;;;;;4991953;28;96734;-71
2022/06/11 22:43:32;;;;;;;13.35;5.68;;;;;;;;;;4992816;28;96083;-71
2022/06/11 22:45:59;;;;;;;9.93;4.97;;;;;;;;;;4991064;28;98156;-71
2022/06/11 22:48:27;;;;;;;6.75;2.72;;;;;;;;;;4994169;28;97238;-71
2022/06/11 22:50:54;;;;;;;3.92;1.92;;;;;;;;;;4992381;28;96560;-71
2022/06/11 22:53:23;;;;;;;5.60;2.05;;;;;;;;;;4992576;28;97423;-71
2022/06/11 22:55:50;;;;;;;5.38;1.98;;;;;;;;;;4993926;28;95319;-71
2022/06/11 22:58:17;;;;;;;8.63;3.45;;;;;;;;;;4991154;28;96612;-71
2022/06/11 23:00:44;;;;;;;6.82;3.50;;;;;;;;;;4991967;28;101230;-71
2022/06/11 23:03:16;;;;;;;5.72;2.25;;;;;;;;;;4993917;28;95244;-71
2022/06/11 23:05:43;;;;;;;3.38;1.90;;;;;;;;;;4993184;28;97190;-71
2022/06/11 23:08:10;;;;;;;7.18;2.85;;;;;;;;;;4992890;28;97407;-71
2022/06/11 23:10:38;;;;;;;5.80;2.53;;;;;;;;;;4996958;28;95432;-71
2022/06/11 23:13:04;;;;;;;8.43;3.80;;;;;;;;;;4989952;28;96787;-72
2022/06/11 23:15:31;;;;;;;5.30;2.30;;;;;;;;;;4992654;28;95367;-71
2022/06/11 23:17:57;;;;;;;4.32;1.60;;;;;;;;;;4992569;28;96639;-71
2022/06/11 23:20:24;;;;;;;4.15;1.60;;;;;;;;;;4990886;28;96916;-71
2022/06/11 23:22:51;;;;;;;2.42;1.13;;;;;;;;;;4992657;28;95439;-72
2022/06/11 23:25:20;;;;;;;3.90;1.90;;;;;;;;;;4993088;28;96939;-72
2022/06/11 23:27:48;;;;;;;9.10;2.55;;;;;;;;;;4989833;28;97380;-72
2022/06/11 23:30:15;;;;;;;5.50;2.55;;;;;;;;;;4991648;28;95291;-72
2022/06/11 23:32:45;;;;;;;3.03;1.50;;;;;;;;;;4995705;28;96916;-72
2022/06/11 23:35:12;;;;;;;2.00;1.20;;;;;;;;;;4993111;28;95450;-72
2022/06/11 23:37:39;;;;;;;2.70;1.60;;;;;;;;;;4990435;28;98158;-72
2022/06/11 23:40:07;;;;;;;3.53;1.33;;;;;;;;;;4989326;28;96779;-72
2022/06/11 23:42:35;;;;;;;1.95;1.00;;;;;;;;;;4993801;27;95401;-71
2022/06/11 23:47:48;;;;;;;2.25;1.20;;;;;;;;;;4989708;28;97385;-72
2022/06/11 23:50:15;;;;;;;1.80;1.10;;;;;;;;;;4992069;28;96727;-71
2022/06/11 23:52:42;;;;;;;1.88;1.05;;;;;;;;;;4991747;28;96094;-71
2022/06/11 23:55:12;;;;;;;6.32;1.42;;;;;;;;;;4993478;28;96475;-71
2022/06/11 23:57:39;;;;;;;4.82;1.60;;;;;;;;;;4992147;28;96575;-71
